Time;durP1;ratioP1;P1;durP2;ratioP2;P2;SDS_P1;SDS_P2;PMS_P1;PMS_P2;Temp;Humidity;BMP_temperature;BMP_pressure;BME280_temperature;BME280_humidity;BME280_pressure;Samples;Min_cycle;Max_cycle;Signal;HPM_P1;HPM_P2
2021/12/08 00:01:09;;;;;;;13.35;4.35;;;;;;;-4.06;98.03;94228.16;4989165;28;20077;-77
2021/12/08 00:03:35;;;;;;;6.68;3.53;;;;;;;-4.10;98.01;94230.34;4990682;28;20045;-77
2021/12/08 00:06:01;;;;;;;10.57;4.22;;;;;;;-4.12;98.46;94228.97;5008538;28;20733;-76
2021/12/08 00:08:30;;;;;;;8.63;4.18;;;;;;;-4.18;98.30;94225.47;5003464;28;20046;-78
2021/12/08 00:13:36;;;;;;;8.60;4.22;;;;;;;-4.25;98.64;94210.13;4997269;28;20046;-77
2021/12/08 00:16:08;;;;;;;8.25;3.97;;;;;;;-4.26;98.64;94207.75;5005673;28;20092;-78
2021/12/08 00:18:34;;;;;;;8.50;4.30;;;;;;;-4.30;98.78;94211.72;5007969;28;20774;-78
2021/12/08 00:21:07;;;;;;;9.02;4.15;;;;;;;-4.36;99.25;94198.72;4991334;28;20116;-78
2021/12/08 00:23:33;;;;;;;10.97;4.33;;;;;;;-4.37;99.24;94199.72;4987812;28;20096;-78
2021/12/08 00:25:59;;;;;;;10.30;4.50;;;;;;;-4.43;100.00;94187.69;5002343;28;20450;-77
2021/12/08 00:28:25;;;;;;;10.40;4.82;;;;;;;-4.79;100.00;94181.41;4997326;28;20042;-77
2021/12/08 00:30:56;;;;;;;9.65;4.40;;;;;;;-4.67;100.00;94176.41;4995364;28;20049;-77
2021/12/08 00:33:22;;;;;;;8.98;4.38;;;;;;;-4.58;100.00;94169.25;4994788;28;20042;-77
2021/12/08 00:35:50;;;;;;;10.20;4.10;;;;;;;-4.53;100.00;94161.69;5008484;28;20046;-80
2021/12/08 00:38:20;;;;;;;9.20;4.63;;;;;;;-4.91;100.00;94154.84;4985612;28;20038;-75
2021/12/08 00:40:50;;;;;;;10.05;4.80;;;;;;;-5.09;100.00;94158.84;4988894;28;20042;-75
2021/12/08 00:43:18;;;;;;;10.07;4.18;;;;;;;-5.06;100.00;94148.22;5007896;28;20033;-75
2021/12/08 00:45:44;;;;;;;9.68;4.53;;;;;;;-4.97;100.00;94150.50;4990077;28;20050;-75
2021/12/08 00:48:10;;;;;;;8.65;4.60;;;;;;;-4.94;100.00;94150.91;4991065;28;20046;-75
2021/12/08 00:50:38;;;;;;;10.13;4.57;;;;;;;-4.95;100.00;94148.53;5008186;28;20145;-77
2021/12/08 00:53:05;;;;;;;9.50;4.72;;;;;;;-5.05;100.00;94154.91;5004251;28;20038;-74
2021/12/08 00:55:31;;;;;;;8.90;3.78;;;;;;;-4.93;100.00;94151.69;5007244;28;20058;-77
2021/12/08 00:57:57;;;;;;;9.75;4.75;;;;;;;-4.97;100.00;94151.31;5008708;28;20038;-75
2021/12/08 01:00:24;;;;;;;7.80;3.95;;;;;;;-4.83;100.00;94144.31;5004240;28;20045;-75
2021/12/08 01:02:50;;;;;;;9.75;4.43;;;;;;;-4.81;100.00;94155.19;4999920;28;20129;-74
2021/12/08 01:05:21;;;;;;;9.20;4.47;;;;;;;-4.92;100.00;94146.34;5008844;28;20116;-76
2021/12/08 01:07:47;;;;;;;10.25;4.72;;;;;;;-5.14;100.00;94138.19;4992121;28;20034;-76
2021/12/08 01:10:18;;;;;;;10.07;4.82;;;;;;;-5.44;100.00;94132.81;5004218;28;20042;-75
2021/12/08 01:12:44;;;;;;;12.05;4.80;;;;;;;-5.43;100.00;94142.84;4974440;28;20041;-76
2021/12/08 01:15:11;;;;;;;8.43;4.07;;;;;;;-5.19;100.00;94138.00;5008318;28;20042;-75
2021/12/08 01:17:38;;;;;;;8.35;4.82;;;;;;;-5.23;100.00;94141.97;5007387;28;20045;-75
2021/12/08 01:20:07;;;;;;;9.35;4.95;;;;;;;-5.52;100.00;94122.75;4991348;28;20074;-74
2021/12/08 01:22:33;;;;;;;11.65;4.82;;;;;;;-5.67;100.00;94125.59;4988278;28;20038;-74
2021/12/08 01:24:58;;;;;;;10.27;4.60;;;;;;;-5.43;100.00;94135.16;4999605;28;20737;-74
2021/12/08 01:27:24;;;;;;;9.80;4.40;;;;;;;-5.40;100.00;94132.19;4985664;28;20125;-75
2021/12/08 01:29:49;;;;;;;8.55;4.38;;;;;;;-5.39;100.00;94132.97;5008438;28;20042;-76
2021/12/08 01:32:15;;;;;;;9.65;4.30;;;;;;;-5.47;100.00;94130.66;5007411;28;20053;-76
2021/12/08 01:34:40;;;;;;;10.48;4.57;;;;;;;-5.28;100.00;94124.63;4984975;28;20121;-74
2021/12/08 01:37:06;;;;;;;10.38;4.65;;;;;;;-5.29;100.00;94122.28;5002641;28;20042;-76
2021/12/08 01:39:32;;;;;;;9.40;4.03;;;;;;;-5.45;100.00;94124.31;5006137;28;20046;-76
2021/12/08 01:41:58;;;;;;;10.57;4.20;;;;;;;-5.52;100.00;94128.66;5006318;28;20045;-76
2021/12/08 01:47:07;;;;;;;10.90;4.38;;;;;;;-5.47;100.00;94131.41;5002525;28;20085;-77
2021/12/08 01:49:33;;;;;;;11.13;4.15;;;;;;;-5.25;100.00;94113.19;4986660;28;20046;-76
2021/12/08 01:51:59;;;;;;;11.90;4.68;;;;;;;-5.35;100.00;94110.28;5007037;28;20057;-74
2021/12/08 01:54:24;;;;;;;10.45;4.78;;;;;;;-5.45;100.00;94103.00;4995756;28;20045;-76
2021/12/08 01:56:51;;;;;;;8.48;4.35;;;;;;;-5.52;100.00;94103.03;5005125;28;20067;-75
2021/12/08 01:59:17;;;;;;;9.30;4.22;;;;;;;-5.57;100.00;94093.41;5004398;28;20049;-76
2021/12/08 02:01:44;;;;;;;8.18;4.30;;;;;;;-5.60;100.00;94095.59;5007799;28;20038;-76
2021/12/08 02:04:11;;;;;;;7.90;4.15;;;;;;;-5.43;100.00;94101.03;5007186;28;20423;-77
2021/12/08 02:06:40;;;;;;;9.50;3.90;;;;;;;-5.23;100.00;94103.50;5002491;28;20567;-76
2021/12/08 02:09:12;;;;;;;8.32;4.30;;;;;;;-5.13;100.00;94092.78;4991434;28;20117;-74
2021/12/08 02:11:40;;;;;;;8.38;3.38;;;;;;;-5.12;100.00;94092.56;5007494;28;20491;-76
2021/12/08 02:14:06;;;;;;;10.70;3.72;;;;;;;-5.30;100.00;94090.72;5007118;28;20049;-76
2021/12/08 02:16:32;;;;;;;7.13;3.80;;;;;;;-5.27;100.00;94094.66;5005920;28;20077;-75
2021/12/08 02:18:58;;;;;;;7.10;3.78;;;;;;;-5.26;100.00;94091.88;5007417;28;20045;-75
2021/12/08 02:21:24;;;;;;;9.65;3.65;;;;;;;-5.19;100.00;94091.06;5006676;28;20514;-75
2021/12/08 02:23:51;;;;;;;7.70;4.03;;;;;;;-5.08;100.00;94083.47;5006805;28;20042;-74
2021/12/08 02:26:17;;;;;;;6.18;3.38;;;;;;;-4.99;100.00;94080.69;5003648;28;20057;-76
2021/12/08 02:28:44;;;;;;;7.45;3.53;;;;;;;-4.87;100.00;94087.50;5007327;28;20077;-76
2021/12/08 02:31:14;;;;;;;7.55;3.58;;;;;;;-4.82;100.00;94092.00;4989685;28;20129;-75
2021/12/08 02:47:32;;;;;;;7.15;3.22;;;;;;;-4.82;100.00;94092.00;4999003;28;20050;-76
2021/12/08 02:49:58;;;;;;;8.15;3.47;;;;;;;-5.07;100.00;94095.31;4998604;28;20046;-76
2021/12/08 02:52:24;;;;;;;6.80;3.38;;;;;;;-4.92;100.00;94102.72;5004095;28;20108;-76
2021/12/08 02:54:51;;;;;;;6.70;3.28;;;;;;;-4.79;100.00;94095.94;5005181;28;20507;-77
2021/12/08 02:57:23;;;;;;;7.30;3.10;;;;;;;-4.86;100.00;94090.84;5000805;28;20415;-76
2021/12/08 02:59:49;;;;;;;6.68;3.35;;;;;;;-4.92;100.00;94094.25;5006776;28;20073;-76
2021/12/08 03:02:15;;;;;;;8.52;3.13;;;;;;;-4.99;100.00;94090.94;4989446;28;20416;-76
2021/12/08 03:04:41;;;;;;;8.25;3.78;;;;;;;-5.08;100.00;94083.47;4985826;28;20046;-76
2021/12/08 03:07:07;;;;;;;7.75;3.80;;;;;;;-5.05;100.00;94083.06;5000774;28;20034;-75
2021/12/08 03:09:33;;;;;;;17.95;3.83;;;;;;;-5.02;100.00;94081.88;5004580;28;20048;-75
2021/12/08 03:12:01;;;;;;;8.20;3.30;;;;;;;-5.02;100.00;94081.09;5010848;28;20041;-75
2021/12/08 03:14:28;;;;;;;7.35;3.97;;;;;;;-4.95;100.00;94074.13;4988929;28;20049;-76
2021/12/08 03:16:58;;;;;;;8.43;3.65;;;;;;;-5.01;100.00;94069.81;4993958;28;20054;-77
2021/12/08 03:19:26;;;;;;;9.35;3.83;;;;;;;-5.19;100.00;94071.31;5007239;28;20042;-75
2021/12/08 03:21:54;;;;;;;9.57;4.25;;;;;;;-5.19;100.00;94071.31;5010709;28;20072;-76
2021/12/08 03:24:30;;;;;;;9.50;4.15;;;;;;;-5.20;100.00;94076.66;5008634;28;20061;-75
2021/12/08 03:29:49;;;;;;;6.78;3.72;;;;;;;-4.87;100.00;94089.25;4999950;28;20100;-76
2021/12/08 03:32:25;;;;;;;8.88;3.50;;;;;;;-4.79;100.00;94076.19;5008010;28;20438;-76
2021/12/08 03:34:51;;;;;;;9.40;4.18;;;;;;;-4.83;100.00;94074.25;5003887;28;20510;-77
2021/12/08 03:37:34;;;;;;;12.13;4.18;;;;;;;-4.84;100.00;94068.34;4996892;28;20050;-77
2021/12/08 03:40:04;;;;;;;7.35;3.88;;;;;;;-4.72;100.00;94071.78;5007700;28;20037;-76
2021/12/08 03:42:34;;;;;;;8.00;4.00;;;;;;;-4.65;100.00;94083.81;5010147;28;20057;-76
2021/12/08 03:45:03;;;;;;;8.20;3.60;;;;;;;-4.61;100.00;94077.22;5009668;28;20049;-76
2021/12/08 03:47:29;;;;;;;7.47;3.72;;;;;;;-4.68;100.00;94076.50;4996952;28;20049;-77
2021/12/08 03:50:01;;;;;;;8.70;3.85;;;;;;;-4.71;100.00;94081.06;5005905;28;20064;-75
2021/12/08 03:52:27;;;;;;;8.43;4.40;;;;;;;-4.29;100.00;94095.16;5009792;28;20050;-76
2021/12/08 03:54:53;;;;;;;8.57;3.78;;;;;;;-4.31;100.00;94081.72;5009840;28;20038;-76
2021/12/08 03:57:19;;;;;;;8.25;3.92;;;;;;;-4.43;100.00;94084.97;4996698;28;20076;-76
2021/12/08 03:59:44;;;;;;;8.68;4.30;;;;;;;-4.53;100.00;94085.44;5012549;28;20451;-77
2021/12/08 04:02:10;;;;;;;9.93;4.30;;;;;;;-4.33;100.00;94073.47;5010079;28;20107;-77
2021/12/08 04:04:48;;;;;;;7.40;3.90;;;;;;;-4.16;100.00;94079.63;5007912;28;20059;-74
2021/12/08 04:07:16;;;;;;;7.47;3.80;;;;;;;-4.15;100.00;94065.78;5006225;28;20042;-75
2021/12/08 04:09:45;;;;;;;7.32;4.40;;;;;;;-4.20;100.00;94060.47;5001947;28;20137;-76
2021/12/08 04:12:17;;;;;;;8.45;4.00;;;;;;;-4.18;100.00;94066.97;5008819;28;20056;-76
2021/12/08 04:14:57;;;;;;;8.77;4.22;;;;;;;-4.19;100.00;94091.09;4991840;28;20752;-76
2021/12/08 04:17:30;;;;;;;9.63;4.18;;;;;;;-4.19;100.00;94100.59;5001385;28;20041;-76
2021/12/08 04:19:58;;;;;;;7.60;4.03;;;;;;;-4.11;100.00;94112.38;5009763;28;20095;-75
2021/12/08 04:22:32;;;;;;;9.73;4.53;;;;;;;-4.01;98.63;94098.03;4990867;28;20125;-75
2021/12/08 04:24:59;;;;;;;8.43;4.20;;;;;;;-4.03;98.27;94105.16;5000928;28;20047;-75
2021/12/08 04:27:30;;;;;;;9.40;4.57;;;;;;;-4.11;99.57;94097.72;4991013;28;20145;-76
2021/12/08 04:29:56;;;;;;;7.45;3.83;;;;;;;-4.10;99.65;94094.16;5003120;28;20144;-76
2021/12/08 04:32:27;;;;;;;7.03;3.97;;;;;;;-4.02;98.64;94100.84;5008958;28;20659;-73
2021/12/08 04:34:58;;;;;;;9.73;4.53;;;;;;;-4.05;98.46;94090.94;5008863;28;20125;-76
2021/12/08 04:37:30;;;;;;;7.28;3.97;;;;;;;-4.14;100.00;94090.44;5004428;28;20052;-76
2021/12/08 04:40:19;;;;;;;9.35;4.38;;;;;;;-4.11;100.00;94092.59;5008633;28;20048;-75
2021/12/08 04:45:23;;;;;;;7.43;4.05;;;;;;;-4.04;98.80;94093.34;5009145;28;20608;-75
2021/12/08 04:48:08;;;;;;;9.55;4.43;;;;;;;-3.88;98.41;94106.59;4986248;28;20121;-76
2021/12/08 04:51:18;;;;;;;;;;;;;;;-3.91;97.54;94114.75;4992371;28;20050;-76
2021/12/08 05:01:59;;;;;;;7.20;3.58;;;;;;;-3.83;98.42;94119.63;5008127;28;20415;-76
2021/12/08 05:07:03;;;;;;;8.55;4.00;;;;;;;-3.79;97.79;94125.91;5006243;28;20038;-77
2021/12/08 05:09:36;;;;;;;8.45;4.57;;;;;;;-3.87;98.61;94118.47;4990420;28;20045;-75
2021/12/08 05:12:08;;;;;;;7.53;3.97;;;;;;;-3.72;97.90;94118.91;5005010;28;20041;-76
2021/12/08 05:14:45;;;;;;;10.02;4.30;;;;;;;-3.69;98.58;94115.91;5007694;28;20492;-76
2021/12/08 05:17:16;;;;;;;9.43;4.07;;;;;;;-3.61;99.14;94119.19;4996335;28;20503;-75
2021/12/08 05:19:44;;;;;;;10.38;4.40;;;;;;;-3.61;98.11;94122.53;5007624;28;20506;-76
2021/12/08 05:22:21;;;;;;;8.55;4.50;;;;;;;-3.61;98.55;94127.69;4999673;28;20049;-76
2021/12/08 05:24:50;;;;;;;9.05;4.15;;;;;;;-3.62;98.10;94125.31;4996700;28;20050;-76
2021/12/08 05:27:15;;;;;;;6.85;3.95;;;;;;;-3.60;98.88;94138.78;5004918;28;20488;-77
2021/12/08 05:29:47;;;;;;;8.07;4.28;;;;;;;-3.55;99.28;94142.28;5007360;28;20056;-74
2021/12/08 05:32:13;;;;;;;9.48;4.20;;;;;;;-3.52;98.81;94141.03;4995502;28;20042;-76
2021/12/08 05:34:39;;;;;;;10.10;4.55;;;;;;;-3.66;100.00;94141.19;4999933;28;20148;-75
2021/12/08 05:37:08;;;;;;;7.05;3.60;;;;;;;-3.51;100.00;94142.63;5004750;28;20096;-76
2021/12/08 05:39:35;;;;;;;7.68;4.05;;;;;;;-3.63;99.08;94142.56;4983453;28;20047;-76
2021/12/08 05:42:05;;;;;;;8.15;3.85;;;;;;;-3.55;100.00;94151.75;5006603;28;20080;-76
2021/12/08 05:44:31;;;;;;;7.10;4.10;;;;;;;-3.61;99.76;94147.47;5006177;28;20042;-75
2021/12/08 05:47:01;;;;;;;10.23;4.50;;;;;;;-3.67;100.00;94151.69;4995415;28;20439;-77
2021/12/08 05:49:27;;;;;;;7.65;3.92;;;;;;;-3.69;100.00;94151.91;5007463;28;20038;-77
2021/12/08 05:51:55;;;;;;;7.95;3.63;;;;;;;-3.66;100.00;94140.41;5008012;28;20076;-76
2021/12/08 05:54:29;;;;;;;8.48;4.05;;;;;;;-3.46;100.00;94147.91;4988780;28;20038;-76
2021/12/08 05:56:54;;;;;;;8.82;3.85;;;;;;;-3.38;100.00;94142.44;4993843;28;20089;-76
2021/12/08 05:59:21;;;;;;;5.72;3.10;;;;;;;-3.49;99.35;94143.19;5004921;28;20533;-76
2021/12/08 06:01:52;;;;;;;12.63;4.15;;;;;;;-3.57;100.00;94128.06;4982656;28;20719;-76
2021/12/08 06:04:20;;;;;;;10.15;3.88;;;;;;;-3.78;100.00;94130.03;4987610;28;20415;-76
2021/12/08 06:06:47;;;;;;;8.05;4.28;;;;;;;-3.72;100.00;94131.75;4990041;28;20046;-76
2021/12/08 06:09:16;;;;;;;8.65;4.40;;;;;;;-3.67;100.00;94134.47;4998205;28;20038;-77
2021/12/08 06:11:43;;;;;;;7.40;3.53;;;;;;;-3.33;99.76;94129.75;5002210;28;20045;-76
2021/12/08 06:14:10;;;;;;;7.50;3.78;;;;;;;-3.37;100.00;94120.88;4990251;28;20113;-77
2021/12/08 06:16:39;;;;;;;7.30;3.58;;;;;;;-3.39;100.00;94130.63;4992842;28;20050;-76
2021/12/08 06:19:08;;;;;;;8.48;3.53;;;;;;;-3.42;100.00;94120.75;5007711;28;20120;-77
2021/12/08 06:21:34;;;;;;;7.30;3.40;;;;;;;-3.19;100.00;94134.72;5007044;28;20742;-77
2021/12/08 06:24:02;;;;;;;9.90;3.80;;;;;;;-3.32;100.00;94131.31;4987720;28;20049;-75
2021/12/08 06:26:28;;;;;;;8.13;4.07;;;;;;;-3.28;100.00;94125.75;5003825;28;20042;-75
2021/12/08 06:28:55;;;;;;;10.32;4.20;;;;;;;-3.05;100.00;94136.13;5006950;28;20037;-75
2021/12/08 06:31:22;;;;;;;8.95;3.60;;;;;;;-3.22;100.00;94130.00;5006063;28;20541;-75
2021/12/08 06:33:49;;;;;;;9.48;3.63;;;;;;;-3.29;100.00;94135.22;5007278;28;20476;-75
2021/12/08 06:36:21;;;;;;;7.28;3.63;;;;;;;-3.27;100.00;94127.31;5006494;28;20511;-77
2021/12/08 06:38:47;;;;;;;7.35;3.60;;;;;;;-3.25;100.00;94126.06;5000156;28;20100;-76
2021/12/08 06:41:18;;;;;;;7.60;3.90;;;;;;;-3.13;100.00;94124.34;5006258;28;20041;-76
2021/12/08 06:43:48;;;;;;;7.40;4.00;;;;;;;-2.94;100.00;94126.06;4989449;28;20113;-75
2021/12/08 06:46:14;;;;;;;6.93;3.33;;;;;;;-3.00;100.00;94133.69;4992975;28;20045;-75
2021/12/08 06:48:46;;;;;;;6.50;3.78;;;;;;;-3.16;100.00;94122.22;5010379;28;20045;-77
2021/12/08 06:51:16;;;;;;;7.00;3.88;;;;;;;-3.40;100.00;94118.75;5011091;28;20060;-77
2021/12/08 06:53:51;;;;;;;8.52;4.30;;;;;;;-3.45;100.00;94105.72;5011063;28;20048;-76
2021/12/08 06:56:26;;;;;;;6.20;3.47;;;;;;;-3.51;100.00;94106.59;5010934;28;20049;-75
2021/12/08 06:58:57;;;;;;;10.57;3.67;;;;;;;-3.41;100.00;94106.88;4996090;28;20050;-76
2021/12/08 07:04:15;;;;;;;7.40;3.50;;;;;;;-3.07;100.00;94120.13;5010057;28;20112;-77
2021/12/08 07:07:00;;;;;;;6.05;3.30;;;;;;;-2.84;100.00;94116.84;5006176;28;20077;-75
2021/12/08 07:09:40;;;;;;;10.00;3.55;;;;;;;-2.88;100.00;94120.84;5009016;28;20038;-77
2021/12/08 07:12:30;;;;;;;8.45;3.28;;;;;;;-2.97;100.00;94112.66;5007454;28;21222;-77
2021/12/08 07:15:03;;;;;;;7.95;3.35;;;;;;;-2.89;100.00;94118.50;4999589;28;20049;-77
2021/12/08 07:17:34;;;;;;;6.97;3.20;;;;;;;-2.84;100.00;94116.06;4989573;28;20475;-75
2021/12/08 07:20:14;;;;;;;7.57;3.90;;;;;;;-2.85;100.00;94124.78;4996919;28;20411;-77
2021/12/08 07:22:44;;;;;;;8.45;3.80;;;;;;;-2.96;100.00;94129.69;4983367;28;20038;-73
2021/12/08 07:25:12;;;;;;;8.95;3.75;;;;;;;-2.97;100.00;94125.53;4983522;28;20833;-75
2021/12/08 07:27:38;;;;;;;9.30;4.25;;;;;;;-3.00;100.00;94128.53;5007567;28;20100;-77
2021/12/08 07:30:12;;;;;;;6.75;3.63;;;;;;;-2.80;100.00;94122.34;5014286;28;20042;-76
2021/12/08 07:32:41;;;;;;;9.40;3.85;;;;;;;-2.92;100.00;94114.56;5009648;28;20081;-76
2021/12/08 07:35:16;;;;;;;8.25;3.65;;;;;;;-2.56;100.00;94118.00;5000385;28;20042;-77
2021/12/08 07:37:44;;;;;;;6.68;3.70;;;;;;;-2.40;100.00;94116.56;5003945;28;20411;-76
2021/12/08 07:40:17;;;;;;;8.75;3.83;;;;;;;-2.66;100.00;94108.28;5001984;28;20054;-75
2021/12/08 07:42:59;;;;;;;6.97;3.40;;;;;;;-2.76;100.00;94107.22;5007870;28;20515;-79
2021/12/08 07:45:31;;;;;;;9.75;3.90;;;;;;;-2.65;100.00;94109.06;5006276;28;20079;-77
2021/12/08 07:47:59;;;;;;;8.18;3.63;;;;;;;-2.62;100.00;94103.44;5006960;28;20459;-75
2021/12/08 07:50:40;;;;;;;10.55;4.20;;;;;;;-2.57;100.00;94095.06;4989897;28;20095;-76
2021/12/08 07:53:08;;;;;;;7.90;3.78;;;;;;;-2.31;100.00;94104.94;5005607;28;20038;-76
2021/12/08 07:55:40;;;;;;;12.40;4.30;;;;;;;-2.47;100.00;94101.25;4994052;28;20049;-74
2021/12/08 07:58:08;;;;;;;8.82;3.67;;;;;;;-2.57;100.00;94095.06;4996145;28;20037;-74
2021/12/08 08:00:39;;;;;;;9.68;3.97;;;;;;;-2.55;100.00;94093.06;5004737;28;20049;-73
2021/12/08 08:03:06;;;;;;;9.10;4.28;;;;;;;-2.47;100.00;94090.13;4985549;28;20062;-73
2021/12/08 08:05:32;;;;;;;7.40;3.58;;;;;;;-2.39;100.00;94087.25;5008097;28;20139;-74
2021/12/08 08:08:03;;;;;;;8.82;3.97;;;;;;;-2.49;100.00;94084.44;5000336;28;20058;-74
2021/12/08 08:10:32;;;;;;;15.60;3.63;;;;;;;-2.42;100.00;94074.81;5007122;28;20137;-74
2021/12/08 08:13:01;;;;;;;7.50;2.50;;;;;;;-2.11;98.75;94083.22;5007066;28;20037;-74
2021/12/08 08:15:32;;;;;;;5.32;2.92;;;;;;;-2.00;100.00;94085.00;4982021;28;20051;-75
2021/12/08 08:18:04;;;;;;;6.10;2.70;;;;;;;-2.10;100.00;94074.47;4998711;28;20044;-74
2021/12/08 08:20:35;;;;;;;7.88;3.00;;;;;;;-2.11;100.00;94070.34;5006037;28;20046;-73
2021/12/08 08:23:02;;;;;;;5.93;3.03;;;;;;;-2.10;100.00;94069.31;5005526;28;20045;-74
2021/12/08 08:25:34;;;;;;;7.28;3.10;;;;;;;-2.19;100.00;94050.81;4989722;28;20099;-75
2021/12/08 08:28:01;;;;;;;5.82;2.80;;;;;;;-2.17;100.00;94048.03;4982530;28;20034;-75
2021/12/08 08:30:32;;;;;;;8.90;3.05;;;;;;;-2.10;100.00;94038.38;5009060;28;20857;-75
2021/12/08 08:32:58;;;;;;;7.55;2.88;;;;;;;-2.16;100.00;94029.75;5007523;28;20081;-75
2021/12/08 08:35:32;;;;;;;7.55;3.05;;;;;;;-1.93;100.00;94028.94;5009244;28;20057;-75
2021/12/08 08:38:00;;;;;;;7.43;3.28;;;;;;;-1.45;100.00;94028.78;5000172;28;20037;-74
2021/12/08 08:40:34;;;;;;;7.38;3.20;;;;;;;-1.57;100.00;94032.22;5002908;28;20389;-73
2021/12/08 08:43:00;;;;;;;11.43;3.90;;;;;;;-1.82;100.00;94039.47;5001489;28;21865;-73
2021/12/08 08:45:31;;;;;;;6.20;2.83;;;;;;;-1.65;100.00;94045.47;5002354;28;20503;-76
2021/12/08 08:48:06;;;;;;;7.22;3.13;;;;;;;-1.32;100.00;94059.50;4980784;28;20045;-75
2021/12/08 08:50:47;;;;;;;9.18;3.72;;;;;;;-1.20;98.92;94069.00;4994241;28;20062;-74
2021/12/08 08:53:14;;;;;;;7.85;3.58;;;;;;;-1.16;97.07;94067.53;4995545;28;20037;-75
2021/12/08 08:55:46;;;;;;;7.07;3.78;;;;;;;-1.33;97.18;94057.94;4998802;28;20840;-75
2021/12/08 08:58:13;;;;;;;8.60;3.90;;;;;;;-1.48;100.00;94055.06;4996593;28;20045;-76
2021/12/08 09:00:56;;;;;;;9.75;4.35;;;;;;;-1.62;100.00;94045.00;4983138;28;20057;-76
2021/12/08 09:03:25;;;;;;;6.25;3.50;;;;;;;-1.72;100.00;94046.59;5002670;28;20517;-76
2021/12/08 09:05:59;;;;;;;8.63;4.05;;;;;;;-1.66;100.00;94043.91;5007188;28;20054;-76
2021/12/08 09:08:28;;;;;;;7.35;4.00;;;;;;;-1.65;100.00;94040.31;4999463;28;20140;-76
2021/12/08 09:10:57;;;;;;;10.32;3.88;;;;;;;-1.29;99.67;94037.63;5003065;28;20039;-76
2021/12/08 09:13:54;;;;;;;6.00;2.97;;;;;;;-1.05;96.44;94038.28;4999110;28;20082;-77
2021/12/08 09:16:29;;;;;;;7.65;3.05;;;;;;;-0.98;95.58;94041.50;4964365;28;20062;-76
2021/12/08 09:19:02;;;;;;;;;;;;;;;-0.95;95.26;94041.06;5005827;28;20064;-76
2021/12/08 09:21:58;;;;;;;8.00;3.35;;;;;;;-0.91;95.24;94044.72;5008655;28;20527;-75
2021/12/08 09:24:37;;;;;;;5.57;3.35;;;;;;;-0.91;95.57;94044.72;4984002;28;20065;-75
2021/12/08 09:27:07;;;;;;;7.95;3.30;;;;;;;-0.91;95.56;94039.53;5007247;28;20042;-75
2021/12/08 09:29:45;;;;;;;10.25;4.00;;;;;;;-0.87;95.60;94040.66;4993776;28;20060;-76
2021/12/08 09:32:18;;;;;;;7.85;3.58;;;;;;;-0.90;95.99;94041.13;4998444;28;20790;-76
2021/12/08 09:34:57;;;;;;;8.40;3.97;;;;;;;-1.03;98.95;94036.25;4983548;28;20061;-76
2021/12/08 09:37:28;;;;;;;10.30;3.78;;;;;;;-1.11;100.00;94029.66;4997730;28;20096;-76
2021/12/08 09:40:03;;;;;;;8.73;3.85;;;;;;;-1.14;100.00;94034.50;5007993;28;20124;-76
2021/12/08 09:42:42;;;;;;;7.65;3.83;;;;;;;-1.15;100.00;94017.44;5007589;28;20053;-76
2021/12/08 09:45:11;;;;;;;7.10;3.25;;;;;;;-1.11;98.45;94008.22;5006830;28;20559;-76
2021/12/08 09:47:37;;;;;;;9.23;4.07;;;;;;;-0.88;96.17;94002.94;4971463;28;20045;-76
2021/12/08 09:50:07;;;;;;;10.52;4.50;;;;;;;-0.77;96.54;94003.88;5005984;28;20034;-76
2021/12/08 09:52:33;;;;;;;8.27;3.88;;;;;;;-0.61;95.71;94010.03;5011353;28;20041;-77
2021/12/08 09:55:01;;;;;;;11.50;3.90;;;;;;;-0.46;93.10;94008.69;5009351;28;20049;-75
2021/12/08 09:57:27;;;;;;;7.78;3.42;;;;;;;-0.37;93.57;94012.47;4991504;28;20045;-74
2021/12/08 09:59:53;;;;;;;7.95;3.58;;;;;;;-0.33;92.78;94005.81;5001262;28;20038;-74
2021/12/08 10:02:31;;;;;;;7.22;3.58;;;;;;;-0.65;97.20;93990.88;4989269;28;20046;-74
2021/12/08 10:04:58;;;;;;;8.55;3.90;;;;;;;-0.78;97.69;93994.53;5001315;28;20058;-77
2021/12/08 10:07:25;;;;;;;6.85;3.55;;;;;;;-0.88;99.40;93990.03;4985977;28;20057;-77
2021/12/08 10:09:51;;;;;;;10.27;4.28;;;;;;;-0.89;100.00;93980.72;5007589;28;20480;-77
2021/12/08 10:12:18;;;;;;;7.85;3.53;;;;;;;-0.88;98.07;93966.78;4987744;28;20121;-78
2021/12/08 10:14:46;;;;;;;10.00;3.70;;;;;;;-0.93;100.00;93955.59;5007039;28;20104;-78
2021/12/08 10:17:13;;;;;;;6.40;3.65;;;;;;;-0.88;100.00;93946.13;4986668;28;20049;-77
2021/12/08 10:19:39;;;;;;;9.63;3.42;;;;;;;-0.87;96.92;93942.50;5006688;28;20041;-74
2021/12/08 10:22:19;;;;;;;6.95;3.80;;;;;;;-0.80;100.00;93949.31;4988396;28;20104;-73
2021/12/08 10:25:03;;;;;;;8.32;3.58;;;;;;;-0.74;100.00;93940.63;5003845;28;20118;-76
2021/12/08 10:27:29;;;;;;;8.98;3.60;;;;;;;-0.69;97.95;93948.44;5003858;28;20046;-74
2021/12/08 10:30:18;;;;;;;7.18;3.63;;;;;;;-0.62;95.28;93943.09;5006147;28;20044;-75
2021/12/08 10:32:44;;;;;;;8.48;3.35;;;;;;;-0.73;96.83;93937.03;5005228;28;20038;-74
2021/12/08 10:35:42;;;;;;;9.43;3.47;;;;;;;-0.70;90.45;93926.22;5005348;28;20503;-76
2021/12/08 10:38:08;;;;;;;7.60;3.40;;;;;;;-0.70;94.97;93939.13;4992882;28;20436;-76
2021/12/08 10:40:34;;;;;;;5.95;3.38;;;;;;;-0.78;96.13;93940.31;5003678;28;20046;-76
2021/12/08 10:43:12;;;;;;;9.73;4.00;;;;;;;-0.79;99.26;93933.59;4981183;28;20042;-76
2021/12/08 10:45:38;;;;;;;9.32;3.80;;;;;;;-0.81;96.40;93924.50;4996456;28;20045;-76
2021/12/08 10:48:05;;;;;;;10.68;3.78;;;;;;;-0.71;93.90;93924.66;5004971;28;20038;-76
2021/12/08 10:56:19;;;;;;;9.23;4.10;;;;;;;-0.71;94.27;93925.41;5000932;28;20511;-74
2021/12/08 10:58:50;;;;;;;13.00;4.88;;;;;;;-0.68;94.96;93929.34;4991196;28;20045;-76
2021/12/08 11:01:19;;;;;;;7.22;3.75;;;;;;;-0.71;98.41;93927.22;4998468;28;20046;-76
2021/12/08 11:03:47;;;;;;;14.63;4.28;;;;;;;-0.76;100.00;93924.56;5006744;28;20046;-76
2021/12/08 11:06:15;;;;;;;8.07;4.10;;;;;;;-0.76;100.00;93929.72;4999739;28;20101;-76
2021/12/08 11:08:47;;;;;;;7.85;4.07;;;;;;;-0.78;100.00;93934.38;4999886;28;20587;-74
2021/12/08 11:11:23;;;;;;;8.57;3.78;;;;;;;-0.60;93.39;93916.03;5004323;28;20042;-73
2021/12/08 11:13:52;;;;;;;12.13;4.38;;;;;;;-0.55;93.34;93913.50;5006993;28;20046;-74
2021/12/08 11:16:23;;;;;;;9.05;4.53;;;;;;;-0.36;94.68;93920.97;4986379;28;20547;-74
2021/12/08 11:19:00;;;;;;;15.38;4.70;;;;;;;-0.45;98.08;93930.16;4990586;28;20042;-75
2021/12/08 11:21:37;;;;;;;9.85;4.70;;;;;;;-0.54;99.97;93925.38;5006813;28;20486;-73
2021/12/08 11:24:06;;;;;;;8.20;4.45;;;;;;;-0.59;100.00;93917.59;4983033;28;20056;-75
2021/12/08 11:26:40;;;;;;;9.27;4.32;;;;;;;-0.63;100.00;93920.88;5004253;28;20133;-74
2021/12/08 11:29:06;;;;;;;8.68;4.47;;;;;;;-0.67;100.00;93915.41;5006090;28;20045;-74
2021/12/08 11:31:39;;;;;;;14.85;4.65;;;;;;;-0.71;100.00;93914.31;5000481;28;20052;-75
2021/12/08 11:34:32;;;;;;;11.25;4.30;;;;;;;-0.65;100.00;93908.19;4988951;28;20124;-75
2021/12/08 11:37:03;;;;;;;8.90;4.40;;;;;;;-0.65;100.00;93891.91;5007376;28;20050;-74
2021/12/08 11:39:36;;;;;;;7.95;4.05;;;;;;;-0.65;100.00;93887.50;5006746;28;20488;-76
2021/12/08 11:42:06;;;;;;;17.15;4.35;;;;;;;-0.64;99.58;93878.75;4991501;28;20056;-75
2021/12/08 11:44:36;;;;;;;13.40;4.32;;;;;;;-0.58;100.00;93882.97;5009550;28;20510;-74
2021/12/08 11:47:08;;;;;;;8.70;4.32;;;;;;;-0.60;100.00;93885.00;5006580;28;20408;-75
2021/12/08 11:49:39;;;;;;;10.77;4.72;;;;;;;-0.58;99.66;93882.97;4993281;28;20104;-77
2021/12/08 11:52:19;;;;;;;13.27;4.47;;;;;;;-0.58;97.28;93882.97;4993709;28;20129;-76
2021/12/08 11:55:01;;;;;;;14.38;4.88;;;;;;;-0.59;99.49;93886.59;5011295;28;20064;-77
2021/12/08 11:57:34;;;;;;;8.57;4.32;;;;;;;-0.62;100.00;93892.22;4992361;28;20402;-77
2021/12/08 12:00:22;;;;;;;8.15;4.25;;;;;;;-0.61;100.00;93888.59;4995850;28;20040;-77
2021/12/08 12:02:56;;;;;;;10.02;4.07;;;;;;;-0.63;100.00;93880.31;5012978;28;20108;-76
2021/12/08 12:05:27;;;;;;;13.18;4.30;;;;;;;-0.63;100.00;93870.00;5008495;28;20046;-77
2021/12/08 12:07:54;;;;;;;11.55;4.38;;;;;;;-0.58;100.00;93864.88;5009380;28;20049;-78
2021/12/08 12:10:24;;;;;;;11.60;4.30;;;;;;;-0.59;97.72;93871.09;5001209;28;20098;-76
2021/12/08 12:12:50;;;;;;;11.77;4.53;;;;;;;-0.53;98.61;93880.44;5016772;28;20045;-77
2021/12/08 12:15:18;;;;;;;11.70;4.38;;;;;;;-0.51;99.85;93887.19;5013407;28;20038;-77
2021/12/08 12:17:45;;;;;;;8.70;3.85;;;;;;;-0.30;97.21;93896.75;5013803;28;20502;-76
2021/12/08 12:20:27;;;;;;;9.45;4.00;;;;;;;-0.22;96.21;93891.13;5010084;28;20056;-77
2021/12/08 12:23:05;;;;;;;9.90;3.85;;;;;;;-0.14;96.98;93896.91;4994215;28;20084;-77
2021/12/08 12:25:53;;;;;;;12.65;4.32;;;;;;;-0.23;97.36;93889.59;5012469;28;20073;-78